Time;durP1;ratioP1;P1;durP2;ratioP2;P2;SDS_P1;SDS_P2;PMS_P1;PMS_P2;Temp;Humidity;BMP_temperature;BMP_pressure;BME280_temperature;BME280_humidity;BME280_pressure;Samples;Min_cycle;Max_cycle;Signal;HPM_P1;HPM_P2
2023/07/03 00:01:41;;;;;;;0.90;0.80;;;;;;;-148.14;100.00;71486.72;1725527;75;41860;-72
2023/07/03 00:04:12;;;;;;;1.20;0.80;;;;;;;-148.14;100.00;71486.72;1724814;75;42197;-73
2023/07/03 00:06:41;;;;;;;1.10;0.90;;;;;;;-148.14;100.00;71486.72;1725725;75;42089;-72
2023/07/03 00:09:11;;;;;;;1.60;0.90;;;;;;;-148.14;100.00;71486.72;1725100;75;41391;-71
2023/07/03 00:11:40;;;;;;;1.30;1.00;;;;;;;-148.14;100.00;71486.72;1725406;75;41107;-75
2023/07/03 00:14:10;;;;;;;0.90;0.80;;;;;;;-148.14;100.00;71486.72;1724584;75;41637;-72
2023/07/03 00:16:42;;;;;;;1.00;0.90;;;;;;;-148.14;100.00;71486.72;1725849;75;41324;-71
2023/07/03 00:19:13;;;;;;;1.20;1.00;;;;;;;-148.14;100.00;71486.72;1725310;75;42824;-71
2023/07/03 00:21:44;;;;;;;1.00;0.80;;;;;;;-148.14;100.00;71486.72;1726314;83;41820;-72
2023/07/03 00:24:13;;;;;;;1.30;1.10;;;;;;;-148.14;100.00;71486.72;1726007;75;41683;-73
2023/07/03 00:26:43;;;;;;;2.60;1.30;;;;;;;-148.14;100.00;71486.72;1726699;83;41106;-71
2023/07/03 00:29:12;;;;;;;1.90;1.60;;;;;;;-148.14;100.00;71486.72;1725762;75;41112;-71
2023/07/03 00:31:44;;;;;;;2.00;1.60;;;;;;;-148.14;100.00;71486.72;1726224;75;41595;-75
2023/07/03 00:34:14;;;;;;;1.10;1.00;;;;;;;-148.14;100.00;71486.72;1725823;75;41642;-71
2023/07/03 00:36:43;;;;;;;1.30;1.00;;;;;;;-148.14;100.00;71486.72;1726199;75;41410;-72
2023/07/03 00:39:14;;;;;;;2.00;1.00;;;;;;;-148.14;100.00;71486.72;1725529;75;41737;-73
2023/07/03 00:41:44;;;;;;;1.30;1.10;;;;;;;-148.14;100.00;71486.72;1725815;75;41582;-73
2023/07/03 00:44:15;;;;;;;1.40;1.00;;;;;;;-148.14;100.00;71486.72;1725689;75;41794;-74
2023/07/03 00:46:49;;;;;;;2.60;1.30;;;;;;;-148.14;100.00;71486.72;1726230;75;41511;-74
2023/07/03 00:49:20;;;;;;;1.40;1.30;;;;;;;-148.14;100.00;71486.72;1725852;75;41365;-71
2023/07/03 00:51:53;;;;;;;1.60;1.20;;;;;;;-148.14;100.00;71486.72;1726150;75;41594;-71
2023/07/03 00:54:23;;;;;;;2.60;1.60;;;;;;;-148.14;100.00;71486.72;1725499;83;41681;-74
2023/07/03 00:56:52;;;;;;;1.70;1.20;;;;;;;-148.14;100.00;71486.72;1726299;75;41373;-72
2023/07/03 00:59:22;;;;;;;2.00;1.40;;;;;;;-148.14;100.00;71486.72;1725707;75;42319;-71
2023/07/03 01:01:58;;;;;;;1.60;1.20;;;;;;;-148.14;100.00;71486.72;1726061;83;41610;-74
2023/07/03 01:04:30;;;;;;;2.00;1.60;;;;;;;-148.14;100.00;71486.72;1725558;75;42784;-74
2023/07/03 01:07:04;;;;;;;3.60;2.30;;;;;;;-148.14;100.00;71486.72;1726222;75;41548;-72
2023/07/03 01:09:36;;;;;;;1.80;1.40;;;;;;;-148.14;100.00;71486.72;1725646;83;41524;-73
2023/07/03 01:12:06;;;;;;;1.90;1.40;;;;;;;-148.14;100.00;71486.72;1726153;75;41550;-77
2023/07/03 01:14:37;;;;;;;1.80;1.50;;;;;;;-148.14;100.00;71486.72;1725421;75;41217;-74
2023/07/03 01:17:10;;;;;;;2.20;1.90;;;;;;;-148.14;100.00;71486.72;1725583;75;41684;-72
2023/07/03 01:19:42;;;;;;;1.80;1.30;;;;;;;-148.14;100.00;71486.72;1725532;75;42338;-72
2023/07/03 01:22:15;;;;;;;1.80;1.40;;;;;;;-148.14;100.00;71486.72;1725428;75;41335;-72
2023/07/03 01:24:50;;;;;;;2.60;1.20;;;;;;;-148.14;100.00;71486.72;1725640;83;41895;-71
2023/07/03 01:27:23;;;;;;;1.30;1.20;;;;;;;-148.14;100.00;71486.72;1726082;75;41556;-73
2023/07/03 01:29:53;;;;;;;1.30;1.00;;;;;;;-148.14;100.00;71486.72;1725100;75;42024;-69
2023/07/03 01:32:25;;;;;;;1.70;1.10;;;;;;;-148.14;100.00;71486.72;1727076;75;41655;-75
2023/07/03 01:34:56;;;;;;;1.20;1.00;;;;;;;-148.14;100.00;71486.72;1726900;75;41466;-70
2023/07/03 01:37:28;;;;;;;1.30;0.90;;;;;;;-148.14;100.00;71486.72;1726645;75;41616;-73
2023/07/03 01:40:01;;;;;;;1.00;0.90;;;;;;;-148.14;100.00;71486.72;1727594;75;41691;-73
2023/07/03 01:42:33;;;;;;;0.90;0.80;;;;;;;-148.14;100.00;71486.72;1727384;75;41310;-74
2023/07/03 01:45:02;;;;;;;1.60;1.20;;;;;;;-148.14;100.00;71486.72;1726365;75;41984;-75
2023/07/03 01:47:32;;;;;;;1.10;1.00;;;;;;;-148.14;100.00;71486.72;1725821;75;41812;-72
2023/07/03 01:50:01;;;;;;;1.50;1.30;;;;;;;-148.14;100.00;71486.72;1725775;75;41766;-72
2023/07/03 01:52:33;;;;;;;0.70;0.70;;;;;;;-148.14;100.00;71486.72;1726185;75;42116;-74
2023/07/03 01:55:09;;;;;;;1.60;1.10;;;;;;;-148.14;100.00;71486.72;1725058;75;42105;-73
2023/07/03 01:57:42;;;;;;;1.10;0.90;;;;;;;-148.14;100.00;71486.72;1725521;75;41913;-72
2023/07/03 02:00:16;;;;;;;1.10;1.00;;;;;;;-148.14;100.00;71486.72;1725775;75;41525;-74
2023/07/03 02:02:49;;;;;;;1.20;0.90;;;;;;;-148.14;100.00;71486.72;1725571;75;41719;-72
2023/07/03 02:05:20;;;;;;;1.40;1.00;;;;;;;-148.14;100.00;71486.72;1726057;75;41066;-73
2023/07/03 02:07:51;;;;;;;2.10;1.30;;;;;;;-148.14;100.00;71486.72;1725631;75;41511;-74
2023/07/03 02:10:23;;;;;;;1.20;1.00;;;;;;;-148.14;100.00;71486.72;1725932;75;41338;-73
2023/07/03 02:12:52;;;;;;;2.00;1.40;;;;;;;-148.14;100.00;71486.72;1725461;75;42542;-73
2023/07/03 02:15:22;;;;;;;1.60;1.40;;;;;;;-148.14;100.00;71486.72;1725916;83;41225;-72
2023/07/03 02:17:55;;;;;;;1.60;1.40;;;;;;;-148.14;100.00;71486.72;1725621;75;41311;-73
2023/07/03 02:20:25;;;;;;;2.30;1.80;;;;;;;-148.14;100.00;71486.72;1725731;83;41821;-73
2023/07/03 02:22:56;;;;;;;2.20;1.50;;;;;;;-148.14;100.00;71486.72;1725511;75;41191;-74
2023/07/03 02:25:28;;;;;;;1.70;1.20;;;;;;;-148.14;100.00;71486.72;1726019;75;41562;-73
2023/07/03 02:27:57;;;;;;;2.00;1.70;;;;;;;-148.14;100.00;71486.72;1725110;75;41420;-72
2023/07/03 02:30:27;;;;;;;1.80;1.50;;;;;;;-148.14;100.00;71486.72;1726065;75;41103;-73
2023/07/03 02:32:56;;;;;;;1.30;1.10;;;;;;;-148.14;100.00;71486.72;1725321;75;41523;-72
2023/07/03 02:35:26;;;;;;;1.60;1.20;;;;;;;-148.14;100.00;71486.72;1725976;75;41315;-73
2023/07/03 02:37:56;;;;;;;1.60;1.40;;;;;;;-148.14;100.00;71486.72;1725053;83;41669;-72
2023/07/03 02:40:28;;;;;;;1.30;1.10;;;;;;;-148.14;100.00;71486.72;1725359;83;41143;-73
2023/07/03 02:42:58;;;;;;;1.60;1.10;;;;;;;-148.14;100.00;71486.72;1725140;75;41763;-73
2023/07/03 02:45:27;;;;;;;2.40;1.10;;;;;;;-148.14;100.00;71486.72;1725915;75;41884;-73
2023/07/03 02:47:56;;;;;;;1.50;1.40;;;;;;;-148.14;100.00;71486.72;1725550;75;41091;-70
2023/07/03 02:50:26;;;;;;;3.10;1.50;;;;;;;-148.14;100.00;71486.72;1726013;75;41564;-73
2023/07/03 02:52:55;;;;;;;2.50;1.60;;;;;;;-148.14;100.00;71486.72;1725077;83;41458;-73
2023/07/03 02:55:28;;;;;;;2.30;1.80;;;;;;;-148.14;100.00;71486.72;1725759;75;41126;-73
2023/07/03 02:57:58;;;;;;;2.80;2.00;;;;;;;-148.14;100.00;71486.72;1725504;75;42041;-72
2023/07/03 03:00:28;;;;;;;2.00;1.70;;;;;;;-148.14;100.00;71486.72;1725282;75;41717;-72
2023/07/03 03:02:57;;;;;;;1.60;1.40;;;;;;;-148.14;100.00;71486.72;1724800;75;41594;-71
2023/07/03 03:05:26;;;;;;;1.50;1.30;;;;;;;-148.14;100.00;71486.72;1725503;75;41222;-72
2023/07/03 03:07:56;;;;;;;2.30;1.70;;;;;;;-148.14;100.00;71486.72;1725438;75;41245;-71
2023/07/03 03:10:29;;;;;;;2.50;1.20;;;;;;;-148.14;100.00;71486.72;1726012;75;41494;-73
2023/07/03 03:12:58;;;;;;;1.30;0.90;;;;;;;-148.14;100.00;71486.72;1725240;75;41232;-72
2023/07/03 03:15:30;;;;;;;1.60;1.30;;;;;;;-148.14;100.00;71486.72;1725672;75;41553;-72
2023/07/03 03:17:59;;;;;;;1.50;1.10;;;;;;;-148.14;100.00;71486.72;1724974;83;41938;-71
2023/07/03 03:20:29;;;;;;;1.30;1.20;;;;;;;-148.14;100.00;71486.72;1725323;83;41468;-74
2023/07/03 03:22:58;;;;;;;2.10;1.80;;;;;;;-148.14;100.00;71486.72;1724577;75;41735;-71
2023/07/03 03:25:30;;;;;;;1.90;1.50;;;;;;;-148.14;100.00;71486.72;1725106;75;41324;-75
2023/07/03 03:28:00;;;;;;;2.10;1.70;;;;;;;-148.14;100.00;71486.72;1725171;75;42265;-73
2023/07/03 03:30:30;;;;;;;1.60;1.40;;;;;;;-148.14;100.00;71486.72;1725518;83;41095;-73
2023/07/03 03:32:59;;;;;;;1.60;1.30;;;;;;;-148.14;100.00;71486.72;1725388;75;41611;-72
2023/07/03 03:35:28;;;;;;;1.70;1.50;;;;;;;-148.14;100.00;71486.72;1725846;75;41540;-71
2023/07/03 03:37:58;;;;;;;4.00;2.40;;;;;;;-148.14;100.00;71486.72;1725059;75;41570;-71
2023/07/03 03:40:30;;;;;;;3.50;2.50;;;;;;;-148.14;100.00;71486.72;1726035;75;41599;-71
2023/07/03 03:43:00;;;;;;;3.40;2.60;;;;;;;-148.14;100.00;71486.72;1725057;83;41335;-71
2023/07/03 03:45:29;;;;;;;3.30;2.40;;;;;;;-148.14;100.00;71486.72;1725589;75;41464;-72
2023/07/03 03:47:58;;;;;;;3.10;2.50;;;;;;;-148.14;100.00;71486.72;1725321;75;41470;-74
2023/07/03 03:50:29;;;;;;;4.10;2.70;;;;;;;-148.14;100.00;71486.72;1725077;83;41824;-75
2023/07/03 03:52:58;;;;;;;3.60;2.60;;;;;;;-148.14;100.00;71486.72;1725106;75;42098;-73
2023/07/03 03:55:30;;;;;;;3.50;2.50;;;;;;;-148.14;100.00;71486.72;1725528;83;41217;-71
2023/07/03 03:58:00;;;;;;;2.40;2.10;;;;;;;-148.14;100.00;71486.72;1725320;75;41145;-71
2023/07/03 04:00:29;;;;;;;2.30;2.00;;;;;;;-148.14;100.00;71486.72;1725206;75;41455;-71
2023/07/03 04:02:59;;;;;;;3.80;2.30;;;;;;;-148.14;100.00;71486.72;1725300;75;41504;-73
2023/07/03 04:05:28;;;;;;;3.00;2.10;;;;;;;-148.14;100.00;71486.72;1725387;75;42071;-72
2023/07/03 04:07:58;;;;;;;2.00;1.60;;;;;;;-148.14;100.00;71486.72;1725372;83;41287;-70
2023/07/03 04:10:30;;;;;;;2.10;1.50;;;;;;;-148.14;100.00;71486.72;1725538;75;41355;-73
2023/07/03 04:12:59;;;;;;;2.00;1.70;;;;;;;-148.14;100.00;71486.72;1724762;75;41358;-73
2023/07/03 04:15:32;;;;;;;2.10;1.70;;;;;;;-148.14;100.00;71486.72;1725467;75;41322;-73
2023/07/03 04:18:01;;;;;;;1.50;1.30;;;;;;;-148.14;100.00;71486.72;1725134;75;41538;-71
2023/07/03 04:20:33;;;;;;;1.70;1.40;;;;;;;-148.14;100.00;71486.72;1725252;75;41621;-73
2023/07/03 04:23:02;;;;;;;2.00;1.70;;;;;;;-148.14;100.00;71486.72;1724235;75;41704;-72
2023/07/03 04:25:34;;;;;;;4.00;2.50;;;;;;;-148.14;100.00;71486.72;1725454;83;41234;-75
2023/07/03 04:28:04;;;;;;;6.80;5.30;;;;;;;-148.14;100.00;71486.72;1725293;75;41873;-73
2023/07/03 04:30:33;;;;;;;5.30;4.60;;;;;;;-148.14;100.00;71486.72;1725590;75;41155;-71
2023/07/03 04:33:03;;;;;;;4.20;3.40;;;;;;;-148.14;100.00;71486.72;1724374;75;41212;-70
2023/07/03 04:35:32;;;;;;;3.40;2.80;;;;;;;-148.14;100.00;71486.72;1725659;75;41419;-72
2023/07/03 04:38:03;;;;;;;4.20;2.60;;;;;;;-148.14;100.00;71486.72;1725207;75;41432;-73
2023/07/03 04:40:35;;;;;;;3.00;2.30;;;;;;;-148.14;100.00;71486.72;1725234;75;41296;-72
2023/07/03 04:43:06;;;;;;;2.80;2.20;;;;;;;-148.14;100.00;71486.72;1725316;75;41803;-72
2023/07/03 04:45:35;;;;;;;2.50;1.80;;;;;;;-148.14;100.00;71486.72;1725268;75;41618;-71
2023/07/03 04:48:05;;;;;;;3.00;2.10;;;;;;;-148.14;100.00;71486.72;1725622;75;41242;-70
2023/07/03 04:50:35;;;;;;;2.20;1.80;;;;;;;-148.14;100.00;71486.72;1726084;75;41192;-74
2023/07/03 04:53:06;;;;;;;2.00;1.60;;;;;;;-148.14;100.00;71486.72;1725049;75;41261;-69
2023/07/03 04:55:39;;;;;;;2.50;1.80;;;;;;;-148.14;100.00;71486.72;1725492;83;41585;-73
2023/07/03 04:58:10;;;;;;;2.50;1.90;;;;;;;-148.14;100.00;71486.72;1724701;75;42666;-72
2023/07/03 05:00:40;;;;;;;1.80;1.40;;;;;;;-148.14;100.00;71486.72;1725416;75;41155;-73
2023/07/03 05:03:10;;;;;;;1.70;1.50;;;;;;;-148.14;100.00;71486.72;1725242;75;41655;-71
2023/07/03 05:05:39;;;;;;;1.60;1.40;;;;;;;-148.14;100.00;71486.72;1725338;75;41743;-72
2023/07/03 05:08:08;;;;;;;2.30;1.60;;;;;;;-148.14;100.00;71486.72;1725415;75;41255;-73
2023/07/03 05:10:41;;;;;;;1.70;1.50;;;;;;;-148.14;100.00;71486.72;1725614;75;41572;-75
2023/07/03 05:13:10;;;;;;;2.40;1.80;;;;;;;-148.14;100.00;71486.72;1725588;75;42233;-73
2023/07/03 05:15:40;;;;;;;2.70;2.20;;;;;;;-148.14;100.00;71486.72;1726079;75;41147;-72
2023/07/03 05:18:09;;;;;;;4.60;2.80;;;;;;;-148.14;100.00;71486.72;1725154;83;41559;-70
2023/07/03 05:20:38;;;;;;;3.90;2.70;;;;;;;-148.14;100.00;71486.72;1725784;75;41146;-73
2023/07/03 05:23:08;;;;;;;4.30;2.90;;;;;;;-148.14;100.00;71486.72;1725384;75;41493;-74
2023/07/03 05:25:40;;;;;;;4.00;3.20;;;;;;;-148.14;100.00;71486.72;1725198;83;41595;-72
2023/07/03 05:28:10;;;;;;;3.70;2.90;;;;;;;-148.14;100.00;71486.72;1725359;75;41507;-75
2023/07/03 05:30:39;;;;;;;4.70;3.40;;;;;;;-148.14;100.00;71486.72;1725978;83;41580;-71
2023/07/03 05:33:10;;;;;;;3.70;3.10;;;;;;;-148.14;100.00;71486.72;1725581;75;41118;-71
2023/07/03 05:35:41;;;;;;;5.90;3.80;;;;;;;-148.14;100.00;71486.72;1725734;75;41137;-71
2023/07/03 05:38:10;;;;;;;4.50;3.70;;;;;;;-148.14;100.00;71486.72;1725734;75;42546;-74
2023/07/03 05:40:42;;;;;;;4.90;3.30;;;;;;;-148.14;100.00;71486.72;1725828;83;41831;-71
2023/07/03 05:43:13;;;;;;;3.40;2.70;;;;;;;-148.14;100.00;71486.72;1725791;75;41559;-72
2023/07/03 05:45:43;;;;;;;5.00;3.70;;;;;;;-148.14;100.00;71486.72;1725373;83;41635;-74
2023/07/03 05:48:13;;;;;;;5.80;3.70;;;;;;;-148.14;100.00;71486.72;1725643;75;42924;-74
2023/07/03 05:50:42;;;;;;;4.10;3.10;;;;;;;-148.14;100.00;71486.72;1726512;75;41653;-73
2023/07/03 05:53:12;;;;;;;4.20;3.50;;;;;;;-148.14;100.00;71486.72;1725447;83;41252;-73
2023/07/03 05:55:44;;;;;;;5.00;3.60;;;;;;;-148.14;100.00;71486.72;1726651;75;41117;-73
2023/07/03 05:58:14;;;;;;;3.60;2.90;;;;;;;-148.14;100.00;71486.72;1726952;75;41487;-73
2023/07/03 06:00:44;;;;;;;4.10;3.70;;;;;;;-148.14;100.00;71486.72;1722075;75;41419;-73
2023/07/03 06:03:14;;;;;;;4.90;3.00;;;;;;;-148.14;100.00;71486.72;1725616;75;41427;-75
2023/07/03 06:05:43;;;;;;;2.70;2.50;;;;;;;-148.14;100.00;71486.72;1724579;75;41608;-73
2023/07/03 06:08:13;;;;;;;4.30;2.60;;;;;;;-148.14;100.00;71486.72;1724965;75;41596;-73
2023/07/03 06:10:46;;;;;;;5.00;3.40;;;;;;;-148.14;100.00;71486.72;1725508;75;41415;-71
2023/07/03 06:13:16;;;;;;;4.20;3.30;;;;;;;-148.14;100.00;71486.72;1725299;75;42739;-73
2023/07/03 06:15:45;;;;;;;4.60;3.20;;;;;;;-148.14;100.00;71486.72;1725779;83;41628;-74
2023/07/03 06:18:15;;;;;;;4.40;3.20;;;;;;;-148.14;100.00;71486.72;1724702;75;41323;-74
2023/07/03 06:20:44;;;;;;;4.80;3.00;;;;;;;-148.14;100.00;71486.72;1725218;83;42094;-73
2023/07/03 06:23:14;;;;;;;4.20;3.50;;;;;;;-148.14;100.00;71486.72;1724989;75;41820;-71
2023/07/03 06:25:46;;;;;;;5.20;3.40;;;;;;;-148.14;100.00;71486.72;1725586;75;41936;-75
2023/07/03 06:28:16;;;;;;;6.20;4.00;;;;;;;-148.14;100.00;71486.72;1725122;75;41994;-72
2023/07/03 06:30:50;;;;;;;5.90;4.00;;;;;;;-148.14;100.00;71486.72;1724555;75;41566;-71
2023/07/03 06:33:19;;;;;;;5.20;3.60;;;;;;;-148.14;100.00;71486.72;1725256;75;41966;-70
2023/07/03 06:35:50;;;;;;;5.20;4.40;;;;;;;-148.14;100.00;71486.72;1725161;75;41382;-75
2023/07/03 06:38:19;;;;;;;4.60;3.40;;;;;;;-148.14;100.00;71486.72;1725184;75;41665;-73
2023/07/03 06:41:01;;;;;;;4.90;3.90;;;;;;;-148.14;100.00;71486.72;1725125;75;41642;-73
2023/07/03 06:43:30;;;;;;;7.60;4.30;;;;;;;-148.14;100.00;71486.72;1725306;75;41688;-72
2023/07/03 06:46:00;;;;;;;6.20;4.30;;;;;;;-148.14;100.00;71486.72;1725653;75;42025;-73
2023/07/03 06:48:30;;;;;;;5.50;4.30;;;;;;;-148.14;100.00;71486.72;1725163;75;41325;-72
2023/07/03 06:51:09;;;;;;;4.70;3.80;;;;;;;-148.14;100.00;71486.72;1724731;75;41458;-73
2023/07/03 06:53:38;;;;;;;4.30;3.40;;;;;;;-148.14;100.00;71486.72;1725069;75;42471;-75
2023/07/03 06:56:11;;;;;;;6.50;3.50;;;;;;;-148.14;100.00;71486.72;1725515;75;41417;-76
2023/07/03 06:58:40;;;;;;;3.60;3.20;;;;;;;-148.14;100.00;71486.72;1725133;75;42242;-73
2023/07/03 07:01:11;;;;;;;4.10;2.90;;;;;;;-148.14;100.00;71486.72;1723979;83;41309;-73
2023/07/03 07:03:41;;;;;;;7.20;4.10;;;;;;;-148.14;100.00;71486.72;1724005;75;41870;-74
2023/07/03 07:06:13;;;;;;;5.80;3.90;;;;;;;-148.14;100.00;71486.72;1724872;75;41443;-74
2023/07/03 07:08:42;;;;;;;4.80;3.50;;;;;;;-148.14;100.00;71486.72;1724163;75;43620;-72
2023/07/03 07:11:16;;;;;;;3.70;3.00;;;;;;;-148.14;100.00;71486.72;1723879;75;41400;-74
2023/07/03 07:13:47;;;;;;;4.90;3.50;;;;;;;-148.14;100.00;71486.72;1725184;75;42244;-72
2023/07/03 07:16:18;;;;;;;4.20;3.20;;;;;;;-148.14;100.00;71486.72;1725442;75;41401;-71
2023/07/03 07:18:50;;;;;;;5.00;3.90;;;;;;;-148.14;100.00;71486.72;1724511;75;41754;-74
2023/07/03 07:21:19;;;;;;;5.40;4.00;;;;;;;-148.14;100.00;71486.72;1724204;75;41664;-74
2023/07/03 07:23:53;;;;;;;8.60;3.50;;;;;;;-148.14;100.00;71486.72;1724994;75;42896;-73
2023/07/03 07:26:26;;;;;;;5.20;3.80;;;;;;;-148.14;100.00;71486.72;1725390;75;41311;-74
2023/07/03 07:28:55;;;;;;;4.70;3.60;;;;;;;-148.14;100.00;71486.72;1725063;75;41226;-71
2023/07/03 07:31:26;;;;;;;6.90;4.50;;;;;;;-148.14;100.00;71486.72;1724280;83;41124;-73
2023/07/03 07:33:55;;;;;;;5.40;4.00;;;;;;;-148.14;100.00;71486.72;1724951;75;41471;-71
2023/07/03 07:36:30;;;;;;;5.80;4.60;;;;;;;-148.14;100.00;71486.72;1725481;75;41565;-77
2023/07/03 07:39:00;;;;;;;4.60;3.20;;;;;;;-148.14;100.00;71486.72;1724456;75;41674;-74
2023/07/03 07:41:33;;;;;;;5.50;4.40;;;;;;;-148.14;100.00;71486.72;1724652;75;41112;-72
2023/07/03 07:44:03;;;;;;;5.20;3.80;;;;;;;-148.14;100.00;71486.72;1725386;83;41573;-71
2023/07/03 07:46:35;;;;;;;7.40;5.00;;;;;;;-148.14;100.00;71486.72;1724822;75;41110;-72
2023/07/03 07:49:05;;;;;;;4.20;3.80;;;;;;;-148.14;100.00;71486.72;1725207;75;42133;-73
2023/07/03 07:51:34;;;;;;;4.80;3.10;;;;;;;-148.14;100.00;71486.72;1724607;75;41605;-71
2023/07/03 07:54:05;;;;;;;3.70;3.30;;;;;;;-148.14;100.00;71486.72;1724706;75;41287;-72
2023/07/03 07:56:37;;;;;;;8.10;4.70;;;;;;;-148.14;100.00;71486.72;1725242;75;41469;-73
2023/07/03 07:59:07;;;;;;;4.80;3.30;;;;;;;-148.14;100.00;71486.72;1724602;75;41655;-73
2023/07/03 08:01:36;;;;;;;4.20;3.30;;;;;;;-148.14;100.00;71486.72;1724993;75;41175;-72
2023/07/03 08:04:06;;;;;;;4.30;3.20;;;;;;;-148.14;100.00;71486.72;1724391;75;41468;-72
2023/07/03 08:06:36;;;;;;;4.80;3.00;;;;;;;-148.14;100.00;71486.72;1725601;75;41371;-76
2023/07/03 08:09:05;;;;;;;3.50;3.00;;;;;;;-148.14;100.00;71486.72;1725026;83;41362;-71
2023/07/03 08:11:38;;;;;;;4.20;3.20;;;;;;;-148.14;100.00;71486.72;1724636;75;41566;-72
2023/07/03 08:14:08;;;;;;;4.90;3.80;;;;;;;-148.14;100.00;71486.72;1725188;75;41475;-73
2023/07/03 08:16:37;;;;;;;3.80;3.00;;;;;;;-148.14;100.00;71486.72;1725657;75;41541;-74
2023/07/03 08:19:07;;;;;;;3.60;3.00;;;;;;;-148.14;100.00;71486.72;1724751;75;41288;-71
2023/07/03 08:21:36;;;;;;;3.70;3.00;;;;;;;-148.14;100.00;71486.72;1725317;75;42229;-73
2023/07/03 08:24:06;;;;;;;4.20;2.90;;;;;;;-148.14;100.00;71486.72;1725001;75;41150;-73
2023/07/03 08:26:38;;;;;;;2.90;2.50;;;;;;;-148.14;100.00;71486.72;1725609;75;41489;-72
2023/07/03 08:29:07;;;;;;;3.00;2.40;;;;;;;-148.14;100.00;71486.72;1724919;75;41979;-74
2023/07/03 08:31:37;;;;;;;4.50;3.50;;;;;;;-148.14;100.00;71486.72;1725063;75;41150;-73
2023/07/03 08:34:07;;;;;;;4.10;2.70;;;;;;;-148.14;100.00;71486.72;1725253;75;41943;-76
2023/07/03 08:36:36;;;;;;;3.60;3.10;;;;;;;-148.14;100.00;71486.72;1725372;75;41765;-74
2023/07/03 08:39:08;;;;;;;3.70;3.10;;;;;;;-148.14;100.00;71486.72;1724964;83;41186;-71
2023/07/03 08:41:44;;;;;;;5.20;2.60;;;;;;;-148.14;100.00;71486.72;1725990;75;41683;-74
2023/07/03 08:44:14;;;;;;;3.60;2.40;;;;;;;-148.14;100.00;71486.72;1725503;75;41467;-72
2023/07/03 08:46:44;;;;;;;3.10;2.30;;;;;;;-148.14;100.00;71486.72;1725821;75;41111;-71
2023/07/03 08:49:16;;;;;;;3.50;1.90;;;;;;;-148.14;100.00;71486.72;1724687;83;41227;-75
2023/07/03 08:51:46;;;;;;;6.20;3.40;;;;;;;-148.14;100.00;71486.72;1725359;75;41470;-71
2023/07/03 08:54:19;;;;;;;3.40;2.80;;;;;;;-148.14;100.00;71486.72;1726005;75;43468;-72
2023/07/03 08:56:52;;;;;;;4.70;3.00;;;;;;;-148.14;100.00;71486.72;1725439;75;41418;-76
2023/07/03 08:59:21;;;;;;;4.00;3.20;;;;;;;-148.14;100.00;71486.72;1724727;75;42355;-72
2023/07/03 09:01:53;;;;;;;3.90;3.20;;;;;;;-148.14;100.00;71486.72;1725758;75;41171;-75
2023/07/03 09:04:34;;;;;;;5.90;3.60;;;;;;;-148.14;100.00;71486.72;1725395;75;41464;-74
2023/07/03 09:07:07;;;;;;;4.50;3.10;;;;;;;-148.14;100.00;71486.72;1725774;75;41464;-72
2023/07/03 09:09:39;;;;;;;4.60;3.40;;;;;;;-148.14;100.00;71486.72;1725834;75;41597;-75
2023/07/03 09:12:16;;;;;;;5.60;3.60;;;;;;;-148.14;100.00;71486.72;1725828;75;41114;-73
2023/07/03 09:14:48;;;;;;;5.40;3.00;;;;;;;-148.14;100.00;71486.72;1727515;75;41571;-73
2023/07/03 09:17:18;;;;;;;5.20;3.50;;;;;;;-148.14;100.00;71486.72;1726859;75;41321;-73
2023/07/03 09:19:50;;;;;;;7.00;4.10;;;;;;;-148.14;100.00;71486.72;1726275;75;41713;-72
2023/07/03 09:22:26;;;;;;;4.80;4.20;;;;;;;-148.14;100.00;71486.72;1721932;75;41594;-74
2023/07/03 09:24:57;;;;;;;4.40;3.30;;;;;;;-148.14;100.00;71486.72;1725041;75;41141;-74
2023/07/03 09:28:13;;;;;;;3.20;2.80;;;;;;;-148.14;100.00;71486.72;1724740;75;41929;-75
2023/07/03 09:30:55;;;;;;;4.40;3.30;;;;;;;-148.14;100.00;71486.72;1723604;75;42609;-74
2023/07/03 09:33:25;;;;;;;4.10;3.00;;;;;;;-148.14;100.00;71486.72;1724693;75;41768;-74
2023/07/03 09:35:57;;;;;;;3.40;3.10;;;;;;;-148.14;100.00;71486.72;1724180;75;41897;-73
2023/07/03 09:38:28;;;;;;;4.30;2.60;;;;;;;-148.14;100.00;71486.72;1724951;75;41612;-74
2023/07/03 09:40:58;;;;;;;3.30;2.60;;;;;;;-148.14;100.00;71486.72;1723981;75;42861;-76
2023/07/03 09:43:30;;;;;;;5.20;3.50;;;;;;;-148.14;100.00;71486.72;1725291;75;41921;-73
2023/07/03 09:46:17;;;;;;;4.60;3.30;;;;;;;-148.14;100.00;71486.72;1725493;75;41352;-75
2023/07/03 09:48:46;;;;;;;3.70;3.00;;;;;;;-148.14;100.00;71486.72;1724981;75;41190;-72
2023/07/03 09:51:26;;;;;;;2.60;2.40;;;;;;;-148.14;100.00;71486.72;1724851;75;41166;-73
2023/07/03 09:53:57;;;;;;;3.60;2.50;;;;;;;-148.14;100.00;71486.72;1724485;75;41487;-75
2023/07/03 09:56:28;;;;;;;6.00;3.20;;;;;;;-148.14;100.00;71486.72;1725465;75;41785;-72
2023/07/03 09:59:03;;;;;;;3.70;3.10;;;;;;;-148.14;100.00;71486.72;1724254;75;42548;-73
2023/07/03 10:01:39;;;;;;;3.60;3.10;;;;;;;-148.14;100.00;71486.72;1724154;75;41259;-72
2023/07/03 10:04:11;;;;;;;5.90;4.50;;;;;;;-148.14;100.00;71486.72;1724108;75;41653;-74
2023/07/03 10:06:42;;;;;;;4.60;3.50;;;;;;;-148.14;100.00;71486.72;1725584;75;41771;-73
2023/07/03 10:09:24;;;;;;;5.50;4.30;;;;;;;-148.14;100.00;71486.72;1724700;75;42287;-75
2023/07/03 10:12:00;;;;;;;5.30;3.90;;;;;;;-148.14;100.00;71486.72;1724571;75;41988;-73
2023/07/03 10:14:33;;;;;;;7.50;4.40;;;;;;;-148.14;100.00;71486.72;1726097;75;41246;-73
2023/07/03 10:17:12;;;;;;;5.50;3.70;;;;;;;-148.14;100.00;71486.72;1725569;75;41642;-73
2023/07/03 10:19:42;;;;;;;4.80;3.50;;;;;;;-148.14;100.00;71486.72;1727829;75;41588;-73
2023/07/03 10:22:13;;;;;;;5.10;3.60;;;;;;;-148.14;100.00;71486.72;1730723;75;42425;-74
2023/07/03 10:24:44;;;;;;;4.20;3.40;;;;;;;-148.14;100.00;71486.72;1728532;75;41203;-75
2023/07/03 10:27:14;;;;;;;4.00;3.20;;;;;;;-148.14;100.00;71486.72;1727877;75;41710;-76
2023/07/03 10:29:47;;;;;;;4.90;3.90;;;;;;;-148.14;100.00;71486.72;1726930;83;41274;-74
2023/07/03 10:32:21;;;;;;;4.50;3.70;;;;;;;-148.14;100.00;71486.72;1726884;75;41678;-74
2023/07/03 10:34:55;;;;;;;5.10;3.70;;;;;;;-148.14;100.00;71486.72;1726532;75;41120;-75
2023/07/03 10:37:28;;;;;;;5.60;4.40;;;;;;;-148.14;100.00;71486.72;1726533;75;41290;-73
2023/07/03 10:40:02;;;;;;;7.20;5.80;;;;;;;-148.14;100.00;71486.72;1724920;75;41353;-72
2023/07/03 10:42:35;;;;;;;7.20;5.00;;;;;;;-148.14;100.00;71486.72;1725269;75;41573;-74
2023/07/03 10:45:07;;;;;;;7.30;4.30;;;;;;;-148.14;100.00;71486.72;1725845;75;41585;-74
2023/07/03 10:47:46;;;;;;;4.60;3.80;;;;;;;-148.14;100.00;71486.72;1725167;75;41314;-74
2023/07/03 10:50:17;;;;;;;5.80;4.70;;;;;;;-148.14;100.00;71486.72;1724448;75;41654;-74
2023/07/03 10:52:54;;;;;;;6.60;4.00;;;;;;;-148.14;100.00;71486.72;1725691;75;41171;-75
2023/07/03 10:55:26;;;;;;;;;;;;;;;-148.14;100.00;71486.72;1724006;75;42297;-75
2023/07/03 10:58:00;;;;;;;6.00;4.60;;;;;;;-148.14;100.00;71486.72;1725050;75;41361;-72
2023/07/03 11:00:36;;;;;;;5.80;3.80;;;;;;;-148.14;100.00;71486.72;1723970;75;41732;-75
2023/07/03 11:03:15;;;;;;;4.00;3.40;;;;;;;-148.14;100.00;71486.72;1725338;75;41131;-73
2023/07/03 11:05:50;;;;;;;5.50;3.90;;;;;;;-148.14;100.00;71486.72;1724373;75;41437;-73
2023/07/03 11:08:24;;;;;;;8.30;6.30;;;;;;;-148.14;100.00;71486.72;1724684;75;41455;-75
2023/07/03 11:10:59;;;;;;;7.30;5.60;;;;;;;-148.14;100.00;71486.72;1723915;75;41646;-74
2023/07/03 11:13:35;;;;;;;7.80;6.00;;;;;;;-148.14;100.00;71486.72;1724363;75;41618;-72
2023/07/03 11:16:11;;;;;;;8.40;6.30;;;;;;;-148.14;100.00;71486.72;1724410;75;41640;-73
2023/07/03 11:18:58;;;;;;;7.20;5.90;;;;;;;-148.14;100.00;71486.72;1724846;75;41751;-72
2023/07/03 11:21:38;;;;;;;8.80;6.00;;;;;;;-148.14;100.00;71486.72;1724482;75;41373;-76
2023/07/03 11:24:16;;;;;;;7.70;5.90;;;;;;;-148.14;100.00;71486.72;1725159;75;42706;-73
2023/07/03 11:26:52;;;;;;;7.20;5.60;;;;;;;-148.14;100.00;71486.72;1724753;75;41553;-75
2023/07/03 11:29:23;;;;;;;8.70;6.10;;;;;;;-148.14;100.00;71486.72;1724718;75;41845;-75